createdAt,value
2019-05-22T00:00:26.030Z,19.97
2019-05-22T00:03:17.879Z,17.80
2019-05-22T00:05:50.345Z,15.77
2019-05-22T00:08:22.372Z,17.07
2019-05-22T00:10:55.162Z,17.03
2019-05-22T00:13:30.687Z,16.83
2019-05-22T00:16:04.269Z,17.73
2019-05-22T00:18:37.571Z,17.53
2019-05-22T00:21:12.794Z,16.50
2019-05-22T00:23:46.950Z,15.10
2019-05-22T00:26:20.166Z,21.40
2019-05-22T00:28:54.470Z,21.53
2019-05-22T00:31:26.309Z,19.50
2019-05-22T00:34:00.390Z,19.63
2019-05-22T00:36:33.940Z,16.93
2019-05-22T00:39:08.347Z,24.13
2019-05-22T00:41:40.289Z,21.77
2019-05-22T00:44:14.180Z,20.07
2019-05-22T00:46:45.821Z,20.10
2019-05-22T00:49:18.342Z,21.50
2019-05-22T00:52:04.724Z,22.77
2019-05-22T00:54:55.731Z,18.97
2019-05-22T00:57:29.887Z,22.17
2019-05-22T01:00:19.415Z,19.83
2019-05-22T01:02:54.835Z,19.80
2019-05-22T01:05:29.703Z,21.47
2019-05-22T01:08:03.376Z,21.77
2019-05-22T01:10:38.097Z,20.87
2019-05-22T01:13:10.260Z,23.43
2019-05-22T01:15:42.119Z,32.60
2019-05-22T01:18:15.496Z,22.90
2019-05-22T01:20:49.868Z,24.27
2019-05-22T01:23:24.216Z,25.87
2019-05-22T01:25:55.988Z,25.63
2019-05-22T01:28:28.486Z,26.43
2019-05-22T01:31:03.371Z,25.33
2019-05-22T01:33:39.509Z,20.77
2019-05-22T01:36:22.026Z,27.30
2019-05-22T01:38:58.753Z,26.33
2019-05-22T01:41:33.122Z,26.73
2019-05-22T01:44:07.277Z,28.03
2019-05-22T01:46:43.758Z,24.33
2019-05-22T01:49:16.878Z,23.80
2019-05-22T01:51:48.529Z,24.73
2019-05-22T01:54:22.375Z,26.20
2019-05-22T01:56:55.945Z,27.23
2019-05-22T01:59:28.260Z,26.07
2019-05-22T02:02:00.583Z,24.80
2019-05-22T02:04:34.546Z,25.80
2019-05-22T02:07:08.507Z,32.03
2019-05-22T02:09:44.509Z,29.57
2019-05-22T02:12:30.994Z,33.00
2019-05-22T02:15:03.213Z,24.60
2019-05-22T02:17:37.590Z,27.20
2019-05-22T02:20:11.434Z,29.53
2019-05-22T02:22:44.801Z,25.13
2019-05-22T02:25:17.781Z,23.37
2019-05-22T02:27:51.005Z,24.77
2019-05-22T02:30:25.021Z,28.83
2019-05-22T02:32:57.611Z,24.70
2019-05-22T02:35:31.208Z,23.47
2019-05-22T02:38:04.514Z,24.80
2019-05-22T02:40:39.222Z,27.70
2019-05-22T02:43:14.248Z,22.83
2019-05-22T02:45:46.903Z,22.53
2019-05-22T02:48:18.842Z,26.20
2019-05-22T02:50:52.677Z,27.63
2019-05-22T02:53:25.522Z,23.43
2019-05-22T02:55:57.621Z,26.17
2019-05-22T02:58:31.483Z,30.33
2019-05-22T03:01:06.725Z,25.17
2019-05-22T03:03:39.330Z,22.90
2019-05-22T03:06:14.487Z,23.87
2019-05-22T03:09:12.211Z,27.17
2019-05-22T03:12:01.634Z,22.60
2019-05-22T03:14:36.106Z,22.90
2019-05-22T03:17:13.014Z,25.23
2019-05-22T03:19:48.464Z,24.67
2019-05-22T03:22:40.966Z,21.63
2019-05-22T03:25:16.000Z,22.13
2019-05-22T03:27:54.417Z,22.03
2019-05-22T03:30:34.859Z,17.23
2019-05-22T03:33:08.367Z,19.37
2019-05-22T03:35:47.774Z,17.67
2019-05-22T03:38:21.614Z,17.13
2019-05-22T03:40:54.959Z,14.80
2019-05-22T03:43:29.720Z,18.00
2019-05-22T03:46:25.168Z,16.17
2019-05-22T03:48:58.720Z,17.33
2019-05-22T03:51:31.382Z,13.80
2019-05-22T03:54:04.568Z,13.03
2019-05-22T03:56:41.337Z,14.77
2019-05-22T03:59:13.832Z,12.83
2019-05-22T04:01:45.961Z,19.80
2019-05-22T04:04:34.171Z,13.67
2019-05-22T04:07:11.931Z,12.30
2019-05-22T04:09:46.444Z,12.77
2019-05-22T04:12:23.976Z,13.50
2019-05-22T04:14:55.865Z,12.67
2019-05-22T04:17:28.927Z,13.10
2019-05-22T04:20:01.148Z,13.70
2019-05-22T04:22:33.671Z,13.67
2019-05-22T04:25:09.004Z,14.23
2019-05-22T04:27:42.598Z,11.80
2019-05-22T04:30:15.945Z,11.83
2019-05-22T04:32:49.131Z,16.57
2019-05-22T04:35:24.469Z,10.93
2019-05-22T04:37:57.055Z,11.43
2019-05-22T04:40:42.676Z,10.97
2019-05-22T04:43:14.797Z,11.20
2019-05-22T04:45:48.998Z,14.87
2019-05-22T04:48:22.868Z,13.73
2019-05-22T04:50:54.970Z,10.03
2019-05-22T04:53:29.097Z,14.07
2019-05-22T04:56:02.212Z,13.97
2019-05-22T04:58:34.562Z,10.00
2019-05-22T05:01:06.498Z,13.87
2019-05-22T05:03:38.919Z,11.70
2019-05-22T05:06:11.895Z,9.60
2019-05-22T05:08:44.618Z,12.00
2019-05-22T05:11:17.565Z,11.50
2019-05-22T05:13:49.556Z,10.57
2019-05-22T05:16:21.460Z,13.97
2019-05-22T05:18:53.854Z,14.57
2019-05-22T05:21:26.066Z,17.37
2019-05-22T05:23:58.563Z,16.00
2019-05-22T05:26:31.834Z,16.17
2019-05-22T05:29:04.757Z,16.90
2019-05-22T05:31:36.802Z,14.67
2019-05-22T05:34:24.959Z,17.13
2019-05-22T05:36:57.808Z,15.60
2019-05-22T05:39:40.456Z,14.90
2019-05-22T05:42:12.674Z,15.77
2019-05-22T05:44:44.530Z,16.03
2019-05-22T05:47:21.890Z,20.70
2019-05-22T05:49:54.899Z,21.10
2019-05-22T05:52:29.364Z,14.63
2019-05-22T05:55:02.945Z,17.00
2019-05-22T05:57:39.302Z,17.57
2019-05-22T06:00:34.225Z,18.73
2019-05-22T06:03:35.573Z,16.83
2019-05-22T06:06:27.461Z,21.73
2019-05-22T06:09:02.602Z,24.87
2019-05-22T06:11:51.552Z,20.90
2019-05-22T06:14:33.737Z,23.37
2019-05-22T06:17:44.453Z,27.17
2019-05-22T06:20:19.679Z,25.83
2019-05-22T06:23:32.310Z,31.57
2019-05-22T06:26:04.900Z,25.17
2019-05-22T06:28:38.766Z,25.80
2019-05-22T06:31:31.340Z,26.23
2019-05-22T06:34:05.422Z,23.87
2019-05-22T06:36:37.631Z,32.07
2019-05-22T06:39:10.433Z,42.00
2019-05-22T06:41:44.095Z,31.23
2019-05-22T06:44:35.184Z,30.70
2019-05-22T06:47:09.880Z,34.87
2019-05-22T06:49:44.065Z,44.70
2019-05-22T06:52:18.108Z,31.90
2019-05-22T06:54:49.949Z,39.90
2019-05-22T06:57:23.769Z,38.50
2019-05-22T07:00:12.377Z,35.20
2019-05-22T07:02:32.576Z,22.97
2019-05-22T07:05:06.429Z,35.73
2019-05-22T07:07:39.106Z,33.07
2019-05-22T07:10:12.709Z,40.63
2019-05-22T07:12:44.656Z,35.90
2019-05-22T07:15:26.885Z,38.70
2019-05-22T07:17:59.086Z,39.63
2019-05-22T07:20:34.597Z,40.03
2019-05-22T07:23:07.191Z,45.90
2019-05-22T07:25:41.356Z,38.30
2019-05-22T07:28:15.905Z,38.10
2019-05-22T07:30:49.559Z,39.23
2019-05-22T07:33:23.420Z,35.87
2019-05-22T07:36:17.006Z,39.40
2019-05-22T07:38:33.682Z,39.50
2019-05-22T07:41:06.057Z,45.63
2019-05-22T07:43:41.341Z,40.87
2019-05-22T07:46:11.684Z,35.87
2019-05-22T07:48:44.491Z,34.77
2019-05-22T07:51:19.523Z,39.70
2019-05-22T07:53:53.943Z,42.00
2019-05-22T07:56:30.189Z,42.13
2019-05-22T07:59:03.187Z,45.87
2019-05-22T08:01:35.802Z,45.90
2019-05-22T08:04:08.206Z,39.53
2019-05-22T08:06:41.336Z,36.87
2019-05-22T08:09:14.499Z,42.80
2019-05-22T08:11:47.468Z,43.57
2019-05-22T08:14:19.672Z,34.93
2019-05-22T08:16:52.859Z,32.97
2019-05-22T08:19:27.175Z,38.63
2019-05-22T08:22:07.422Z,38.13
2019-05-22T08:24:34.271Z,38.03
2019-05-22T08:27:08.320Z,42.17
2019-05-22T08:29:49.785Z,43.73
2019-05-22T08:32:27.406Z,36.83
2019-05-22T08:35:00.300Z,38.13
2019-05-22T08:37:39.180Z,35.17
2019-05-22T08:40:15.223Z,42.93
2019-05-22T08:42:51.740Z,36.93
2019-05-22T08:45:25.150Z,42.60
2019-05-22T08:48:00.067Z,42.73
2019-05-22T08:50:35.191Z,48.27
2019-05-22T08:53:11.900Z,46.30
2019-05-22T08:55:45.284Z,46.33
2019-05-22T08:58:20.322Z,50.33
2019-05-22T09:00:53.863Z,48.23
2019-05-22T09:03:26.356Z,49.23
2019-05-22T09:05:57.915Z,44.37
2019-05-22T09:08:30.953Z,51.50
2019-05-22T09:11:04.198Z,46.37
2019-05-22T09:13:35.865Z,58.17
2019-05-22T09:16:08.714Z,41.70
2019-05-22T09:18:41.407Z,39.27
2019-05-22T09:21:14.060Z,48.93
2019-05-22T09:23:46.723Z,42.03
2019-05-22T09:26:18.827Z,51.77
2019-05-22T09:28:50.784Z,41.90
2019-05-22T09:31:23.095Z,40.87
2019-05-22T09:33:55.044Z,43.40
2019-05-22T09:36:27.248Z,43.57
2019-05-22T09:38:59.015Z,39.40
2019-05-22T09:41:32.099Z,39.90
2019-05-22T09:44:04.135Z,39.23
2019-05-22T09:46:36.002Z,39.80
2019-05-22T09:49:10.499Z,42.93
2019-05-22T09:51:43.183Z,36.63
2019-05-22T09:54:15.672Z,37.17
2019-05-22T09:56:47.413Z,33.47
2019-05-22T09:59:19.440Z,37.50
2019-05-22T10:01:51.712Z,30.53
2019-05-22T10:04:23.811Z,30.57
2019-05-22T10:06:55.797Z,34.27
2019-05-22T10:09:28.505Z,31.00
2019-05-22T10:12:03.052Z,30.70
2019-05-22T10:14:35.377Z,29.83
2019-05-22T10:17:07.801Z,30.17
2019-05-22T10:19:39.855Z,23.37
2019-05-22T10:22:12.840Z,29.33
2019-05-22T10:24:49.866Z,31.70
2019-05-22T10:27:19.737Z,29.10
2019-05-22T10:29:52.492Z,31.23
2019-05-22T10:32:25.079Z,25.63
2019-05-22T10:34:58.261Z,30.27
2019-05-22T10:37:30.181Z,26.93
2019-05-22T10:40:03.208Z,24.70
2019-05-22T10:42:35.044Z,25.53
2019-05-22T10:45:08.425Z,23.53
2019-05-22T10:47:40.590Z,29.13
2019-05-22T10:50:13.828Z,24.67
2019-05-22T10:52:45.468Z,22.23
2019-05-22T10:55:20.214Z,24.50
2019-05-22T10:57:52.085Z,24.53
2019-05-22T11:00:26.216Z,24.30
2019-05-22T11:02:58.959Z,22.80
2019-05-22T11:05:31.163Z,22.43
2019-05-22T11:08:03.544Z,20.87
2019-05-22T11:10:36.445Z,20.07
2019-05-22T11:13:08.548Z,23.73
2019-05-22T11:15:40.990Z,23.03
2019-05-22T11:18:13.865Z,23.80
2019-05-22T11:20:46.018Z,24.37
2019-05-22T11:23:18.079Z,22.37
2019-05-22T11:25:49.745Z,21.93
2019-05-22T11:28:22.148Z,18.70
2019-05-22T11:30:54.287Z,25.70
2019-05-22T11:33:26.077Z,23.43
2019-05-22T11:35:58.491Z,17.90
2019-05-22T11:38:30.353Z,21.00
2019-05-22T11:41:02.586Z,19.70
2019-05-22T11:43:35.120Z,20.30
2019-05-22T11:46:09.114Z,22.83
2019-05-22T11:48:40.761Z,24.93
2019-05-22T11:51:12.521Z,18.60
2019-05-22T11:53:44.437Z,18.80
2019-05-22T11:56:16.840Z,19.13
2019-05-22T11:58:49.542Z,19.87
2019-05-22T12:01:21.867Z,24.40
2019-05-22T12:03:53.901Z,17.93
2019-05-22T12:06:26.929Z,27.00
2019-05-22T12:08:59.600Z,19.47
2019-05-22T12:11:34.900Z,21.43
2019-05-22T12:14:09.244Z,21.00
2019-05-22T12:16:46.185Z,22.33
2019-05-22T12:19:17.828Z,19.43
2019-05-22T12:21:49.768Z,21.47
2019-05-22T12:24:28.400Z,22.93
2019-05-22T12:26:55.188Z,19.97
2019-05-22T12:29:28.162Z,22.67
2019-05-22T12:32:00.684Z,19.13
2019-05-22T12:34:32.544Z,24.57
2019-05-22T12:37:05.663Z,20.37
2019-05-22T12:39:40.058Z,24.80
2019-05-22T12:42:15.741Z,21.43
2019-05-22T12:44:48.146Z,21.47
2019-05-22T12:47:25.209Z,19.53
2019-05-22T12:49:59.371Z,22.57
2019-05-22T12:52:31.678Z,17.53
2019-05-22T12:55:09.035Z,24.67
2019-05-22T12:57:41.685Z,19.83
2019-05-22T13:00:14.751Z,20.40
2019-05-22T13:02:47.972Z,23.93
2019-05-22T13:05:20.066Z,21.63
2019-05-22T13:07:53.372Z,22.10
2019-05-22T13:10:27.298Z,20.30
2019-05-22T13:12:59.941Z,19.40
2019-05-22T13:15:33.792Z,20.10
2019-05-22T13:18:08.459Z,17.00
2019-05-22T13:20:45.027Z,17.37
2019-05-22T13:23:18.401Z,15.90
2019-05-22T13:25:50.635Z,18.93
2019-05-22T13:28:25.825Z,21.17
2019-05-22T13:30:58.530Z,16.37
2019-05-22T13:33:31.851Z,15.73
2019-05-22T13:36:05.089Z,16.23
2019-05-22T13:38:37.086Z,15.57
2019-05-22T13:41:10.040Z,15.90
2019-05-22T13:43:42.458Z,13.53
2019-05-22T13:46:15.732Z,13.73
2019-05-22T13:48:47.578Z,12.60
2019-05-22T13:51:20.930Z,14.47
2019-05-22T13:53:54.326Z,20.43
2019-05-22T13:56:27.370Z,12.00
2019-05-22T13:58:59.560Z,15.47
2019-05-22T14:01:32.045Z,13.67
2019-05-22T14:04:03.991Z,20.77
2019-05-22T14:06:37.245Z,13.23
2019-05-22T14:09:13.673Z,15.23
2019-05-22T14:11:47.015Z,16.17
2019-05-22T14:14:20.557Z,17.47
2019-05-22T14:16:53.823Z,16.13
2019-05-22T14:19:25.561Z,15.53
2019-05-22T14:21:57.716Z,15.60
2019-05-22T14:24:31.640Z,17.57
2019-05-22T14:27:06.066Z,17.10
2019-05-22T14:29:44.164Z,15.33
2019-05-22T14:32:17.153Z,14.33
2019-05-22T14:34:49.250Z,13.57
2019-05-22T14:37:22.088Z,16.67
2019-05-22T14:39:54.393Z,22.27
2019-05-22T14:42:30.165Z,19.83
2019-05-22T14:45:03.595Z,26.40
2019-05-22T14:47:41.723Z,22.47
2019-05-22T14:50:25.899Z,18.40
2019-05-22T14:52:55.575Z,20.30
2019-05-22T14:55:30.081Z,21.03
2019-05-22T14:58:07.234Z,22.13
2019-05-22T15:00:42.143Z,20.37
2019-05-22T15:03:18.003Z,15.70
2019-05-22T15:05:50.124Z,16.30
2019-05-22T15:08:24.452Z,21.37
2019-05-22T15:10:58.841Z,19.33
2019-05-22T15:13:30.862Z,18.43
2019-05-22T15:16:02.562Z,17.80
2019-05-22T15:18:37.817Z,21.63
2019-05-22T15:21:11.424Z,18.10
2019-05-22T15:23:44.970Z,15.43
2019-05-22T15:26:17.268Z,15.13
2019-05-22T15:28:49.096Z,16.13
2019-05-22T15:31:20.851Z,14.97
2019-05-22T15:33:52.960Z,15.47
2019-05-22T15:36:25.628Z,14.90
2019-05-22T15:38:59.830Z,17.97
2019-05-22T15:41:34.090Z,17.93
2019-05-22T15:44:06.960Z,19.40
2019-05-22T15:46:40.357Z,17.37
2019-05-22T15:49:15.505Z,18.20
2019-05-22T15:51:50.715Z,20.83
2019-05-22T15:54:25.527Z,15.07
2019-05-22T15:57:00.392Z,21.43
2019-05-22T15:59:35.827Z,20.73
2019-05-22T16:02:15.141Z,19.10
2019-05-22T16:04:48.868Z,21.37
2019-05-22T16:07:22.541Z,21.73
2019-05-22T16:09:54.361Z,17.67
2019-05-22T16:12:28.995Z,18.43
2019-05-22T16:15:02.394Z,20.07
2019-05-22T16:17:37.161Z,16.67
2019-05-22T16:20:11.475Z,17.73
2019-05-22T16:22:45.572Z,22.63
2019-05-22T16:25:18.843Z,19.57
2019-05-22T16:27:52.501Z,21.07
2019-05-22T16:30:26.383Z,19.67
2019-05-22T16:33:00.867Z,18.70
2019-05-22T16:35:33.054Z,18.00
2019-05-22T16:38:05.360Z,17.77
2019-05-22T16:40:39.893Z,19.40
2019-05-22T16:43:13.137Z,19.67
2019-05-22T16:45:46.366Z,33.53
2019-05-22T16:48:28.617Z,26.00
2019-05-22T16:50:53.948Z,18.80
2019-05-22T16:53:27.829Z,19.33
2019-05-22T16:56:00.948Z,20.10
2019-05-22T16:58:36.393Z,16.90
2019-05-22T17:01:10.211Z,27.90
2019-05-22T17:03:44.247Z,29.40
2019-05-22T17:06:16.890Z,17.40
2019-05-22T17:08:51.366Z,17.77
2019-05-22T17:11:23.397Z,18.33
2019-05-22T17:13:59.422Z,17.03
2019-05-22T17:16:33.789Z,21.03
2019-05-22T17:19:25.679Z,19.60
2019-05-22T17:21:43.401Z,17.17
2019-05-22T17:24:15.255Z,15.93
2019-05-22T17:26:48.105Z,23.37
2019-05-22T17:29:23.855Z,18.70
2019-05-22T17:31:56.302Z,18.83
2019-05-22T17:34:38.600Z,23.77
2019-05-22T17:37:14.528Z,13.63
2019-05-22T17:39:49.590Z,30.47
2019-05-22T17:42:25.139Z,16.73
2019-05-22T17:44:59.683Z,49.30
2019-05-22T17:47:32.494Z,13.93
2019-05-22T17:50:23.619Z,27.33
2019-05-22T17:52:42.658Z,35.83
2019-05-22T17:55:20.740Z,31.07
2019-05-22T17:57:52.742Z,25.67
2019-05-22T18:00:33.811Z,20.07
2019-05-22T18:03:09.628Z,13.00
2019-05-22T18:05:44.603Z,16.10
2019-05-22T18:08:18.203Z,11.80
2019-05-22T18:10:51.056Z,10.07
2019-05-22T18:13:24.888Z,11.23
2019-05-22T18:15:57.630Z,17.67
2019-05-22T18:18:30.246Z,13.50
2019-05-22T18:21:04.591Z,11.17
2019-05-22T18:23:36.530Z,8.60
2019-05-22T18:26:10.061Z,12.13
2019-05-22T18:28:42.114Z,8.53
2019-05-22T18:31:14.273Z,8.73
2019-05-22T18:33:49.732Z,11.70
2019-05-22T18:36:24.490Z,9.90
2019-05-22T18:38:56.713Z,12.73
2019-05-22T18:41:31.030Z,8.10
2019-05-22T18:44:03.007Z,13.27
2019-05-22T18:46:37.345Z,18.40
2019-05-22T18:49:09.334Z,12.23
2019-05-22T18:51:44.370Z,25.23
2019-05-22T18:54:19.192Z,13.10
2019-05-22T18:56:51.515Z,25.03
2019-05-22T18:59:24.060Z,30.00
2019-05-22T19:01:56.838Z,14.80
2019-05-22T19:04:31.297Z,13.10
2019-05-22T19:07:04.728Z,12.63
2019-05-22T19:09:38.637Z,20.40
2019-05-22T19:12:11.033Z,16.63
2019-05-22T19:14:44.417Z,15.90
2019-05-22T19:17:18.675Z,18.57
2019-05-22T19:19:51.698Z,15.27
2019-05-22T19:22:27.063Z,10.93
2019-05-22T19:24:59.122Z,13.13
2019-05-22T19:27:31.335Z,13.33
2019-05-22T19:30:05.794Z,17.90
2019-05-22T19:32:38.540Z,16.40
2019-05-22T19:35:11.287Z,12.73
2019-05-22T19:37:44.307Z,8.63
2019-05-22T19:40:17.786Z,27.07
2019-05-22T19:42:51.269Z,19.03
2019-05-22T19:45:25.076Z,7.83
2019-05-22T19:47:58.870Z,12.90
2019-05-22T19:50:33.346Z,7.83
2019-05-22T19:53:18.571Z,7.73
2019-05-22T19:55:48.001Z,6.33
2019-05-22T19:58:22.451Z,6.37
2019-05-22T20:00:56.385Z,11.97
2019-05-22T20:03:33.929Z,10.97
2019-05-22T20:06:09.511Z,5.63
2019-05-22T20:08:45.670Z,13.80
2019-05-22T20:11:18.926Z,5.67
2019-05-22T20:13:50.671Z,8.57
2019-05-22T20:16:22.418Z,6.47
2019-05-22T20:18:59.728Z,7.83
2019-05-22T20:21:39.634Z,7.10
2019-05-22T20:24:12.043Z,7.30
2019-05-22T20:26:46.002Z,12.47
2019-05-22T20:29:20.892Z,9.23
2019-05-22T20:31:52.994Z,6.13
2019-05-22T20:34:26.952Z,4.83
2019-05-22T20:37:05.189Z,11.27
2019-05-22T20:39:40.457Z,5.50
2019-05-22T20:42:13.346Z,4.90
2019-05-22T20:44:45.452Z,5.83
2019-05-22T20:47:20.907Z,10.97
2019-05-22T20:49:57.735Z,4.87
2019-05-22T20:52:32.114Z,18.63
2019-05-22T20:55:07.186Z,6.80
2019-05-22T20:57:43.841Z,7.07
2019-05-22T21:00:18.362Z,6.70
2019-05-22T21:02:55.114Z,4.80
2019-05-22T21:05:31.247Z,5.33
2019-05-22T21:08:10.602Z,8.87
2019-05-22T21:10:49.787Z,6.97
2019-05-22T21:13:21.800Z,9.87
2019-05-22T21:15:54.984Z,12.40
2019-05-22T21:18:30.843Z,6.07
2019-05-22T21:21:04.307Z,9.53
2019-05-22T21:23:38.219Z,9.53
2019-05-22T21:26:11.394Z,9.70
2019-05-22T21:28:43.579Z,6.67
2019-05-22T21:31:17.601Z,7.93
2019-05-22T21:33:51.180Z,6.63
2019-05-22T21:36:23.889Z,5.83
2019-05-22T21:38:56.588Z,13.80
2019-05-22T21:41:30.153Z,9.53
2019-05-22T21:44:02.183Z,7.43
2019-05-22T21:46:36.153Z,7.93
2019-05-22T21:49:09.147Z,10.87
2019-05-22T21:51:41.496Z,11.27
2019-05-22T21:54:13.878Z,8.67
2019-05-22T21:56:45.786Z,6.50
2019-05-22T21:59:18.309Z,14.13
2019-05-22T22:01:51.949Z,6.97
2019-05-22T22:04:30.360Z,8.70
2019-05-22T22:07:03.077Z,10.80
2019-05-22T22:09:35.753Z,7.97
2019-05-22T22:12:09.488Z,6.70
2019-05-22T22:14:41.697Z,10.43
2019-05-22T22:17:15.078Z,10.37
2019-05-22T22:19:47.274Z,9.23
2019-05-22T22:22:27.148Z,7.73
2019-05-22T22:24:59.054Z,8.67
2019-05-22T22:27:31.319Z,5.50
2019-05-22T22:30:05.668Z,9.13
2019-05-22T22:32:37.790Z,8.60
2019-05-22T22:35:13.387Z,9.73
2019-05-22T22:37:46.618Z,7.00
2019-05-22T22:40:23.916Z,7.70
2019-05-22T22:42:55.822Z,10.17
2019-05-22T22:45:39.126Z,7.83
2019-05-22T22:48:13.043Z,12.03
2019-05-22T22:50:46.597Z,7.57
2019-05-22T22:53:20.477Z,7.60
2019-05-22T22:55:53.493Z,10.07
2019-05-22T22:58:25.399Z,12.53
2019-05-22T23:00:58.898Z,10.93
2019-05-22T23:03:31.906Z,9.70
2019-05-22T23:06:06.675Z,10.90
2019-05-22T23:08:40.896Z,11.10
2019-05-22T23:11:15.835Z,10.60
2019-05-22T23:13:49.646Z,9.33
2019-05-22T23:16:23.900Z,10.80
2019-05-22T23:19:18.376Z,11.60
2019-05-22T23:21:49.034Z,10.80
2019-05-22T23:24:21.281Z,12.03
2019-05-22T23:26:54.299Z,8.50
2019-05-22T23:29:28.431Z,12.27
2019-05-22T23:32:00.817Z,9.50
2019-05-22T23:34:32.912Z,9.60
2019-05-22T23:37:06.161Z,11.67
2019-05-22T23:39:39.689Z,11.33
2019-05-22T23:42:16.420Z,10.03
2019-05-22T23:44:49.770Z,14.87
2019-05-22T23:47:21.854Z,11.13
2019-05-22T23:49:54.534Z,10.60
2019-05-22T23:52:26.919Z,10.23
2019-05-22T23:54:59.593Z,9.60
2019-05-22T23:57:32.208Z,12.23
